sensor_id;sensor_type;location;lat;lon;timestamp;P1;durP1;ratioP1;P2;durP2;ratioP2
3022;SDS011;1521;53.584;9.938;2022-08-19T00:01:16;15.73;;;11.67;;
3022;SDS011;1521;53.584;9.938;2022-08-19T00:03:42;17.50;;;13.40;;
3022;SDS011;1521;53.584;9.938;2022-08-19T00:06:08;16.17;;;12.10;;
3022;SDS011;1521;53.584;9.938;2022-08-19T00:08:34;19.80;;;13.50;;
3022;SDS011;1521;53.584;9.938;2022-08-19T00:11:00;15.63;;;11.50;;
3022;SDS011;1521;53.584;9.938;2022-08-19T00:13:26;20.97;;;13.40;;
3022;SDS011;1521;53.584;9.938;2022-08-19T00:15:53;13.63;;;11.60;;
3022;SDS011;1521;53.584;9.938;2022-08-19T00:18:19;21.87;;;15.70;;
3022;SDS011;1521;53.584;9.938;2022-08-19T00:20:45;28.47;;;14.90;;
3022;SDS011;1521;53.584;9.938;2022-08-19T00:23:11;23.73;;;17.20;;
3022;SDS011;1521;53.584;9.938;2022-08-19T00:25:36;28.67;;;17.63;;
3022;SDS011;1521;53.584;9.938;2022-08-19T00:28:02;36.97;;;22.33;;
3022;SDS011;1521;53.584;9.938;2022-08-19T00:30:29;25.10;;;17.83;;
3022;SDS011;1521;53.584;9.938;2022-08-19T00:32:55;31.37;;;19.97;;
3022;SDS011;1521;53.584;9.938;2022-08-19T00:35:22;31.27;;;21.97;;
3022;SDS011;1521;53.584;9.938;2022-08-19T00:37:48;30.07;;;21.03;;
3022;SDS011;1521;53.584;9.938;2022-08-19T00:40:15;34.83;;;23.30;;
3022;SDS011;1521;53.584;9.938;2022-08-19T00:42:43;28.93;;;20.30;;
3022;SDS011;1521;53.584;9.938;2022-08-19T00:45:19;32.50;;;19.97;;
3022;SDS011;1521;53.584;9.938;2022-08-19T00:47:46;26.97;;;18.37;;
3022;SDS011;1521;53.584;9.938;2022-08-19T00:50:13;42.90;;;23.97;;
3022;SDS011;1521;53.584;9.938;2022-08-19T00:52:42;40.07;;;26.23;;
3022;SDS011;1521;53.584;9.938;2022-08-19T00:55:12;41.57;;;25.03;;
3022;SDS011;1521;53.584;9.938;2022-08-19T00:57:44;45.50;;;27.70;;
3022;SDS011;1521;53.584;9.938;2022-08-19T01:00:16;36.23;;;23.57;;
3022;SDS011;1521;53.584;9.938;2022-08-19T01:02:43;44.30;;;27.80;;
3022;SDS011;1521;53.584;9.938;2022-08-19T01:05:10;37.07;;;24.77;;
3022;SDS011;1521;53.584;9.938;2022-08-19T01:07:40;39.30;;;23.63;;
3022;SDS011;1521;53.584;9.938;2022-08-19T01:10:10;44.13;;;25.00;;
3022;SDS011;1521;53.584;9.938;2022-08-19T01:12:38;35.27;;;23.37;;
3022;SDS011;1521;53.584;9.938;2022-08-19T01:15:06;38.10;;;25.40;;
3022;SDS011;1521;53.584;9.938;2022-08-19T01:17:33;38.70;;;23.80;;
3022;SDS011;1521;53.584;9.938;2022-08-19T01:20:02;31.20;;;20.20;;
3022;SDS011;1521;53.584;9.938;2022-08-19T01:22:48;41.87;;;22.50;;
3022;SDS011;1521;53.584;9.938;2022-08-19T01:25:21;33.67;;;21.03;;
3022;SDS011;1521;53.584;9.938;2022-08-19T01:27:51;28.67;;;20.53;;
3022;SDS011;1521;53.584;9.938;2022-08-19T01:30:25;36.83;;;22.67;;
3022;SDS011;1521;53.584;9.938;2022-08-19T01:32:54;32.20;;;20.67;;
3022;SDS011;1521;53.584;9.938;2022-08-19T01:35:21;36.77;;;21.70;;
3022;SDS011;1521;53.584;9.938;2022-08-19T01:37:57;32.77;;;22.03;;
3022;SDS011;1521;53.584;9.938;2022-08-19T01:40:27;34.00;;;22.50;;
3022;SDS011;1521;53.584;9.938;2022-08-19T01:42:55;37.13;;;22.60;;
3022;SDS011;1521;53.584;9.938;2022-08-19T01:45:23;37.50;;;23.10;;
3022;SDS011;1521;53.584;9.938;2022-08-19T01:47:50;35.60;;;23.57;;
3022;SDS011;1521;53.584;9.938;2022-08-19T01:50:16;38.90;;;22.37;;
3022;SDS011;1521;53.584;9.938;2022-08-19T01:52:42;39.33;;;23.00;;
3022;SDS011;1521;53.584;9.938;2022-08-19T01:55:10;37.93;;;22.90;;
3022;SDS011;1521;53.584;9.938;2022-08-19T01:57:41;40.67;;;22.87;;
3022;SDS011;1521;53.584;9.938;2022-08-19T02:00:12;44.97;;;25.83;;
3022;SDS011;1521;53.584;9.938;2022-08-19T02:02:40;36.83;;;23.80;;
3022;SDS011;1521;53.584;9.938;2022-08-19T02:05:07;45.10;;;24.20;;
3022;SDS011;1521;53.584;9.938;2022-08-19T02:07:33;38.13;;;21.70;;
3022;SDS011;1521;53.584;9.938;2022-08-19T02:10:01;37.43;;;22.20;;
3022;SDS011;1521;53.584;9.938;2022-08-19T02:12:31;43.00;;;23.53;;
3022;SDS011;1521;53.584;9.938;2022-08-19T02:14:58;41.33;;;24.90;;
3022;SDS011;1521;53.584;9.938;2022-08-19T02:17:24;40.20;;;23.23;;
3022;SDS011;1521;53.584;9.938;2022-08-19T02:19:50;41.67;;;23.73;;
3022;SDS011;1521;53.584;9.938;2022-08-19T02:22:15;43.87;;;23.57;;
3022;SDS011;1521;53.584;9.938;2022-08-19T02:24:41;42.73;;;23.10;;
3022;SDS011;1521;53.584;9.938;2022-08-19T02:27:07;44.03;;;24.13;;
3022;SDS011;1521;53.584;9.938;2022-08-19T02:29:32;40.93;;;23.20;;
3022;SDS011;1521;53.584;9.938;2022-08-19T02:31:58;47.40;;;25.37;;
3022;SDS011;1521;53.584;9.938;2022-08-19T02:34:24;45.03;;;25.10;;
3022;SDS011;1521;53.584;9.938;2022-08-19T02:36:50;47.60;;;24.37;;
3022;SDS011;1521;53.584;9.938;2022-08-19T02:39:16;51.57;;;24.87;;
3022;SDS011;1521;53.584;9.938;2022-08-19T02:41:42;56.33;;;28.30;;
3022;SDS011;1521;53.584;9.938;2022-08-19T02:44:08;56.13;;;27.93;;
3022;SDS011;1521;53.584;9.938;2022-08-19T02:46:33;51.97;;;26.70;;
3022;SDS011;1521;53.584;9.938;2022-08-19T02:49:03;61.97;;;28.47;;
3022;SDS011;1521;53.584;9.938;2022-08-19T02:51:34;61.90;;;28.03;;
3022;SDS011;1521;53.584;9.938;2022-08-19T02:54:02;72.47;;;30.80;;
3022;SDS011;1521;53.584;9.938;2022-08-19T02:56:29;70.00;;;31.37;;
3022;SDS011;1521;53.584;9.938;2022-08-19T02:58:56;60.77;;;29.33;;
3022;SDS011;1521;53.584;9.938;2022-08-19T03:01:24;71.03;;;31.93;;
3022;SDS011;1521;53.584;9.938;2022-08-19T03:03:57;76.83;;;32.17;;
3022;SDS011;1521;53.584;9.938;2022-08-19T03:06:26;74.33;;;29.67;;
3022;SDS011;1521;53.584;9.938;2022-08-19T03:08:52;69.73;;;32.23;;
3022;SDS011;1521;53.584;9.938;2022-08-19T03:11:21;77.47;;;31.67;;
3022;SDS011;1521;53.584;9.938;2022-08-19T03:13:52;71.83;;;30.80;;
3022;SDS011;1521;53.584;9.938;2022-08-19T03:16:18;68.40;;;29.57;;
3022;SDS011;1521;53.584;9.938;2022-08-19T03:18:45;69.13;;;30.77;;
3022;SDS011;1521;53.584;9.938;2022-08-19T03:21:18;63.63;;;29.10;;
3022;SDS011;1521;53.584;9.938;2022-08-19T03:23:49;69.13;;;31.10;;
3022;SDS011;1521;53.584;9.938;2022-08-19T03:26:15;61.23;;;26.93;;
3022;SDS011;1521;53.584;9.938;2022-08-19T03:28:41;68.67;;;28.20;;
3022;SDS011;1521;53.584;9.938;2022-08-19T03:31:10;61.77;;;27.00;;
3022;SDS011;1521;53.584;9.938;2022-08-19T03:33:38;70.20;;;29.10;;
3022;SDS011;1521;53.584;9.938;2022-08-19T03:36:06;59.50;;;28.57;;
3022;SDS011;1521;53.584;9.938;2022-08-19T03:38:36;59.00;;;27.80;;
3022;SDS011;1521;53.584;9.938;2022-08-19T03:41:07;47.27;;;25.70;;
3022;SDS011;1521;53.584;9.938;2022-08-19T03:43:39;53.87;;;27.23;;
3022;SDS011;1521;53.584;9.938;2022-08-19T03:46:07;59.00;;;27.50;;
3022;SDS011;1521;53.584;9.938;2022-08-19T03:48:37;58.13;;;26.50;;
3022;SDS011;1521;53.584;9.938;2022-08-19T03:51:05;69.37;;;30.47;;
3022;SDS011;1521;53.584;9.938;2022-08-19T03:53:31;64.87;;;28.93;;
3022;SDS011;1521;53.584;9.938;2022-08-19T03:55:59;63.67;;;29.00;;
3022;SDS011;1521;53.584;9.938;2022-08-19T03:58:26;67.10;;;29.93;;
3022;SDS011;1521;53.584;9.938;2022-08-19T04:00:54;79.23;;;29.87;;
3022;SDS011;1521;53.584;9.938;2022-08-19T04:03:21;69.27;;;31.67;;
3022;SDS011;1521;53.584;9.938;2022-08-19T04:05:48;71.37;;;30.10;;
3022;SDS011;1521;53.584;9.938;2022-08-19T04:08:14;72.47;;;33.50;;
3022;SDS011;1521;53.584;9.938;2022-08-19T04:10:45;71.23;;;32.20;;
3022;SDS011;1521;53.584;9.938;2022-08-19T04:13:12;81.77;;;33.50;;
3022;SDS011;1521;53.584;9.938;2022-08-19T04:15:42;93.43;;;37.37;;
3022;SDS011;1521;53.584;9.938;2022-08-19T04:18:11;77.30;;;35.10;;
3022;SDS011;1521;53.584;9.938;2022-08-19T04:20:39;89.97;;;34.50;;
3022;SDS011;1521;53.584;9.938;2022-08-19T04:23:06;87.40;;;36.30;;
3022;SDS011;1521;53.584;9.938;2022-08-19T04:25:49;87.70;;;36.83;;
3022;SDS011;1521;53.584;9.938;2022-08-19T04:28:15;70.60;;;35.33;;
3022;SDS011;1521;53.584;9.938;2022-08-19T04:30:42;81.83;;;37.10;;
3022;SDS011;1521;53.584;9.938;2022-08-19T04:33:10;79.37;;;35.00;;
3022;SDS011;1521;53.584;9.938;2022-08-19T04:35:39;76.97;;;35.30;;
3022;SDS011;1521;53.584;9.938;2022-08-19T04:38:07;72.33;;;35.20;;
3022;SDS011;1521;53.584;9.938;2022-08-19T04:40:33;82.10;;;36.23;;
3022;SDS011;1521;53.584;9.938;2022-08-19T04:43:18;84.27;;;35.77;;
3022;SDS011;1521;53.584;9.938;2022-08-19T04:45:44;85.70;;;37.07;;
3022;SDS011;1521;53.584;9.938;2022-08-19T04:48:10;86.90;;;37.80;;
3022;SDS011;1521;53.584;9.938;2022-08-19T04:50:39;63.73;;;33.00;;
3022;SDS011;1521;53.584;9.938;2022-08-19T04:53:06;58.70;;;32.13;;
3022;SDS011;1521;53.584;9.938;2022-08-19T04:55:32;54.73;;;30.30;;
3022;SDS011;1521;53.584;9.938;2022-08-19T04:57:58;69.13;;;30.97;;
3022;SDS011;1521;53.584;9.938;2022-08-19T05:00:24;59.37;;;27.83;;
3022;SDS011;1521;53.584;9.938;2022-08-19T05:02:50;58.40;;;28.97;;
3022;SDS011;1521;53.584;9.938;2022-08-19T05:05:15;51.87;;;28.70;;
3022;SDS011;1521;53.584;9.938;2022-08-19T05:07:42;53.43;;;28.40;;
3022;SDS011;1521;53.584;9.938;2022-08-19T05:10:07;50.17;;;28.60;;
3022;SDS011;1521;53.584;9.938;2022-08-19T05:12:33;55.47;;;28.60;;
3022;SDS011;1521;53.584;9.938;2022-08-19T05:14:59;40.47;;;24.60;;
3022;SDS011;1521;53.584;9.938;2022-08-19T05:17:26;53.00;;;26.17;;
3022;SDS011;1521;53.584;9.938;2022-08-19T05:19:52;54.50;;;26.87;;
3022;SDS011;1521;53.584;9.938;2022-08-19T05:22:36;56.13;;;25.90;;
3022;SDS011;1521;53.584;9.938;2022-08-19T05:25:05;48.83;;;25.97;;
3022;SDS011;1521;53.584;9.938;2022-08-19T05:27:37;46.57;;;24.47;;
3022;SDS011;1521;53.584;9.938;2022-08-19T05:30:02;48.03;;;24.50;;
3022;SDS011;1521;53.584;9.938;2022-08-19T05:32:29;54.30;;;24.70;;
3022;SDS011;1521;53.584;9.938;2022-08-19T05:34:54;45.87;;;23.00;;
3022;SDS011;1521;53.584;9.938;2022-08-19T05:37:20;42.30;;;23.53;;
3022;SDS011;1521;53.584;9.938;2022-08-19T05:39:47;41.23;;;23.00;;
3022;SDS011;1521;53.584;9.938;2022-08-19T05:42:14;42.00;;;23.43;;
3022;SDS011;1521;53.584;9.938;2022-08-19T05:44:41;42.00;;;22.63;;
3022;SDS011;1521;53.584;9.938;2022-08-19T05:47:09;38.77;;;23.90;;
3022;SDS011;1521;53.584;9.938;2022-08-19T05:49:37;40.60;;;21.77;;
3022;SDS011;1521;53.584;9.938;2022-08-19T05:52:06;43.73;;;22.60;;
3022;SDS011;1521;53.584;9.938;2022-08-19T05:54:36;41.10;;;22.03;;
3022;SDS011;1521;53.584;9.938;2022-08-19T05:57:05;43.63;;;20.57;;
3022;SDS011;1521;53.584;9.938;2022-08-19T05:59:31;37.97;;;21.40;;
3022;SDS011;1521;53.584;9.938;2022-08-19T06:02:00;40.83;;;22.50;;
3022;SDS011;1521;53.584;9.938;2022-08-19T06:04:26;36.53;;;21.47;;
3022;SDS011;1521;53.584;9.938;2022-08-19T06:06:52;36.50;;;21.03;;
3022;SDS011;1521;53.584;9.938;2022-08-19T06:09:18;35.10;;;20.53;;
3022;SDS011;1521;53.584;9.938;2022-08-19T06:11:46;39.67;;;21.30;;
3022;SDS011;1521;53.584;9.938;2022-08-19T06:14:19;36.33;;;20.57;;
3022;SDS011;1521;53.584;9.938;2022-08-19T06:16:47;33.40;;;19.37;;
3022;SDS011;1521;53.584;9.938;2022-08-19T06:19:14;40.53;;;22.93;;
3022;SDS011;1521;53.584;9.938;2022-08-19T06:21:42;43.10;;;21.50;;
3022;SDS011;1521;53.584;9.938;2022-08-19T06:24:11;34.67;;;19.37;;
3022;SDS011;1521;53.584;9.938;2022-08-19T06:26:39;40.47;;;19.50;;
3022;SDS011;1521;53.584;9.938;2022-08-19T06:29:07;43.73;;;19.87;;
3022;SDS011;1521;53.584;9.938;2022-08-19T06:31:35;37.60;;;17.30;;
3022;SDS011;1521;53.584;9.938;2022-08-19T06:34:02;37.63;;;22.53;;
3022;SDS011;1521;53.584;9.938;2022-08-19T06:38:59;39.67;;;21.53;;
3022;SDS011;1521;53.584;9.938;2022-08-19T06:41:29;37.73;;;19.93;;
3022;SDS011;1521;53.584;9.938;2022-08-19T06:43:56;35.90;;;22.00;;
3022;SDS011;1521;53.584;9.938;2022-08-19T06:46:22;29.33;;;17.53;;
3022;SDS011;1521;53.584;9.938;2022-08-19T06:48:48;29.43;;;18.53;;
3022;SDS011;1521;53.584;9.938;2022-08-19T06:51:15;31.00;;;18.43;;
3022;SDS011;1521;53.584;9.938;2022-08-19T06:53:44;33.87;;;19.73;;
3022;SDS011;1521;53.584;9.938;2022-08-19T06:56:14;33.83;;;19.40;;
3022;SDS011;1521;53.584;9.938;2022-08-19T06:58:41;35.27;;;19.63;;
3022;SDS011;1521;53.584;9.938;2022-08-19T07:01:07;30.07;;;16.67;;
3022;SDS011;1521;53.584;9.938;2022-08-19T07:03:34;35.63;;;20.73;;
3022;SDS011;1521;53.584;9.938;2022-08-19T07:06:11;30.93;;;21.47;;
3022;SDS011;1521;53.584;9.938;2022-08-19T07:08:40;38.57;;;20.30;;
3022;SDS011;1521;53.584;9.938;2022-08-19T07:11:08;33.30;;;18.27;;
3022;SDS011;1521;53.584;9.938;2022-08-19T07:13:35;29.80;;;17.87;;
3022;SDS011;1521;53.584;9.938;2022-08-19T07:16:08;28.70;;;17.27;;
3022;SDS011;1521;53.584;9.938;2022-08-19T07:18:37;21.17;;;14.30;;
3022;SDS011;1521;53.584;9.938;2022-08-19T07:21:10;30.87;;;15.40;;
3022;SDS011;1521;53.584;9.938;2022-08-19T07:23:38;25.17;;;16.30;;
3022;SDS011;1521;53.584;9.938;2022-08-19T07:26:26;23.93;;;14.93;;
3022;SDS011;1521;53.584;9.938;2022-08-19T07:28:51;21.60;;;14.03;;
3022;SDS011;1521;53.584;9.938;2022-08-19T07:31:19;23.13;;;14.07;;
3022;SDS011;1521;53.584;9.938;2022-08-19T07:33:47;20.80;;;13.00;;
3022;SDS011;1521;53.584;9.938;2022-08-19T07:36:16;21.77;;;14.17;;
3022;SDS011;1521;53.584;9.938;2022-08-19T07:38:44;23.00;;;12.63;;
3022;SDS011;1521;53.584;9.938;2022-08-19T07:41:13;21.63;;;13.00;;
3022;SDS011;1521;53.584;9.938;2022-08-19T07:43:40;16.97;;;11.57;;
3022;SDS011;1521;53.584;9.938;2022-08-19T07:46:08;16.50;;;11.63;;
3022;SDS011;1521;53.584;9.938;2022-08-19T07:48:34;17.27;;;11.37;;
3022;SDS011;1521;53.584;9.938;2022-08-19T07:51:03;14.70;;;11.17;;
3022;SDS011;1521;53.584;9.938;2022-08-19T07:53:30;18.00;;;11.73;;
3022;SDS011;1521;53.584;9.938;2022-08-19T07:55:58;16.00;;;11.20;;
3022;SDS011;1521;53.584;9.938;2022-08-19T07:58:30;16.07;;;11.23;;
3022;SDS011;1521;53.584;9.938;2022-08-19T08:00:58;19.87;;;11.50;;
3022;SDS011;1521;53.584;9.938;2022-08-19T08:03:24;24.40;;;13.00;;
3022;SDS011;1521;53.584;9.938;2022-08-19T08:06:11;15.67;;;11.30;;
3022;SDS011;1521;53.584;9.938;2022-08-19T08:08:56;14.30;;;10.00;;
3022;SDS011;1521;53.584;9.938;2022-08-19T08:11:47;17.10;;;12.07;;
3022;SDS011;1521;53.584;9.938;2022-08-19T08:14:22;19.63;;;12.30;;
3022;SDS011;1521;53.584;9.938;2022-08-19T08:16:52;20.00;;;13.10;;
3022;SDS011;1521;53.584;9.938;2022-08-19T08:19:21;25.07;;;14.00;;
3022;SDS011;1521;53.584;9.938;2022-08-19T08:21:49;29.07;;;15.47;;
3022;SDS011;1521;53.584;9.938;2022-08-19T08:24:16;30.07;;;18.27;;
3022;SDS011;1521;53.584;9.938;2022-08-19T08:26:42;26.50;;;14.83;;
3022;SDS011;1521;53.584;9.938;2022-08-19T08:29:12;25.23;;;16.93;;
3022;SDS011;1521;53.584;9.938;2022-08-19T08:31:40;30.83;;;15.90;;
3022;SDS011;1521;53.584;9.938;2022-08-19T08:34:07;25.13;;;15.37;;
3022;SDS011;1521;53.584;9.938;2022-08-19T08:36:37;21.43;;;13.13;;
3022;SDS011;1521;53.584;9.938;2022-08-19T08:39:10;23.77;;;16.13;;
3022;SDS011;1521;53.584;9.938;2022-08-19T08:44:27;27.00;;;17.17;;
3022;SDS011;1521;53.584;9.938;2022-08-19T08:47:04;31.97;;;18.53;;
3022;SDS011;1521;53.584;9.938;2022-08-19T08:52:11;31.63;;;19.67;;
3022;SDS011;1521;53.584;9.938;2022-08-19T08:54:45;23.57;;;15.70;;
3022;SDS011;1521;53.584;9.938;2022-08-19T08:57:15;32.07;;;17.40;;
3022;SDS011;1521;53.584;9.938;2022-08-19T08:59:48;28.37;;;17.07;;
3022;SDS011;1521;53.584;9.938;2022-08-19T09:02:18;21.67;;;15.43;;
3022;SDS011;1521;53.584;9.938;2022-08-19T09:04:44;31.33;;;16.23;;
3022;SDS011;1521;53.584;9.938;2022-08-19T09:15:50;26.97;;;16.57;;
3022;SDS011;1521;53.584;9.938;2022-08-19T09:18:23;22.40;;;14.40;;
3022;SDS011;1521;53.584;9.938;2022-08-19T09:20:49;23.17;;;13.50;;
3022;SDS011;1521;53.584;9.938;2022-08-19T09:23:14;21.93;;;14.40;;
3022;SDS011;1521;53.584;9.938;2022-08-19T09:25:40;22.50;;;13.20;;
3022;SDS011;1521;53.584;9.938;2022-08-19T09:28:06;18.97;;;12.57;;
3022;SDS011;1521;53.584;9.938;2022-08-19T09:30:34;16.20;;;11.77;;
3022;SDS011;1521;53.584;9.938;2022-08-19T09:33:05;30.90;;;14.13;;
3022;SDS011;1521;53.584;9.938;2022-08-19T09:35:31;20.37;;;12.50;;
3022;SDS011;1521;53.584;9.938;2022-08-19T09:37:57;19.10;;;14.13;;
3022;SDS011;1521;53.584;9.938;2022-08-19T09:40:24;20.87;;;13.67;;
3022;SDS011;1521;53.584;9.938;2022-08-19T09:42:51;26.93;;;15.70;;
3022;SDS011;1521;53.584;9.938;2022-08-19T09:45:18;24.40;;;15.37;;
3022;SDS011;1521;53.584;9.938;2022-08-19T09:47:51;17.80;;;12.40;;
3022;SDS011;1521;53.584;9.938;2022-08-19T09:50:18;24.37;;;15.70;;
3022;SDS011;1521;53.584;9.938;2022-08-19T09:52:44;26.33;;;15.47;;
3022;SDS011;1521;53.584;9.938;2022-08-19T09:55:10;25.07;;;16.60;;
3022;SDS011;1521;53.584;9.938;2022-08-19T09:57:36;27.73;;;16.13;;
3022;SDS011;1521;53.584;9.938;2022-08-19T10:00:06;23.40;;;16.33;;
3022;SDS011;1521;53.584;9.938;2022-08-19T10:02:34;24.30;;;17.40;;
3022;SDS011;1521;53.584;9.938;2022-08-19T10:05:00;21.50;;;15.60;;
3022;SDS011;1521;53.584;9.938;2022-08-19T10:07:44;38.77;;;24.13;;
3022;SDS011;1521;53.584;9.938;2022-08-19T10:10:10;27.53;;;19.80;;
3022;SDS011;1521;53.584;9.938;2022-08-19T10:12:36;27.23;;;17.83;;
3022;SDS011;1521;53.584;9.938;2022-08-19T10:15:02;33.03;;;19.90;;
3022;SDS011;1521;53.584;9.938;2022-08-19T10:17:28;28.80;;;18.80;;
3022;SDS011;1521;53.584;9.938;2022-08-19T10:19:53;27.50;;;18.00;;
3022;SDS011;1521;53.584;9.938;2022-08-19T10:22:19;29.77;;;19.20;;
3022;SDS011;1521;53.584;9.938;2022-08-19T10:24:45;31.17;;;20.40;;
3022;SDS011;1521;53.584;9.938;2022-08-19T10:27:11;36.17;;;18.57;;
3022;SDS011;1521;53.584;9.938;2022-08-19T10:29:38;28.37;;;18.97;;
3022;SDS011;1521;53.584;9.938;2022-08-19T10:32:05;28.23;;;18.33;;
3022;SDS011;1521;53.584;9.938;2022-08-19T10:34:33;31.40;;;18.60;;
3022;SDS011;1521;53.584;9.938;2022-08-19T10:37:01;28.20;;;18.93;;
3022;SDS011;1521;53.584;9.938;2022-08-19T10:39:31;27.80;;;17.77;;
3022;SDS011;1521;53.584;9.938;2022-08-19T10:41:58;31.53;;;17.70;;
3022;SDS011;1521;53.584;9.938;2022-08-19T10:44:28;28.97;;;19.30;;
3022;SDS011;1521;53.584;9.938;2022-08-19T10:46:55;33.40;;;20.43;;
3022;SDS011;1521;53.584;9.938;2022-08-19T10:49:20;35.57;;;22.63;;
3022;SDS011;1521;53.584;9.938;2022-08-19T10:51:47;32.80;;;19.63;;
3022;SDS011;1521;53.584;9.938;2022-08-19T10:54:32;35.00;;;20.33;;
3022;SDS011;1521;53.584;9.938;2022-08-19T10:57:16;27.30;;;18.90;;
3022;SDS011;1521;53.584;9.938;2022-08-19T10:59:42;32.00;;;18.90;;
3022;SDS011;1521;53.584;9.938;2022-08-19T11:02:08;30.87;;;18.63;;
3022;SDS011;1521;53.584;9.938;2022-08-19T11:04:36;27.10;;;19.77;;
3022;SDS011;1521;53.584;9.938;2022-08-19T11:07:02;32.67;;;19.57;;
3022;SDS011;1521;53.584;9.938;2022-08-19T11:09:29;31.77;;;19.13;;
3022;SDS011;1521;53.584;9.938;2022-08-19T11:11:55;28.17;;;17.70;;
3022;SDS011;1521;53.584;9.938;2022-08-19T11:14:21;28.13;;;16.37;;
3022;SDS011;1521;53.584;9.938;2022-08-19T11:16:51;28.73;;;18.20;;
3022;SDS011;1521;53.584;9.938;2022-08-19T11:19:20;27.80;;;17.93;;
3022;SDS011;1521;53.584;9.938;2022-08-19T11:21:49;27.17;;;17.87;;
3022;SDS011;1521;53.584;9.938;2022-08-19T11:24:20;26.83;;;17.23;;
3022;SDS011;1521;53.584;9.938;2022-08-19T11:26:48;26.07;;;17.70;;
3022;SDS011;1521;53.584;9.938;2022-08-19T11:29:16;23.70;;;16.10;;
3022;SDS011;1521;53.584;9.938;2022-08-19T11:31:45;21.93;;;14.33;;
3022;SDS011;1521;53.584;9.938;2022-08-19T11:34:14;22.20;;;15.43;;
3022;SDS011;1521;53.584;9.938;2022-08-19T11:36:42;25.27;;;16.20;;
3022;SDS011;1521;53.584;9.938;2022-08-19T11:39:10;25.47;;;16.50;;
3022;SDS011;1521;53.584;9.938;2022-08-19T11:41:38;27.50;;;16.90;;
3022;SDS011;1521;53.584;9.938;2022-08-19T11:44:04;22.60;;;16.53;;
3022;SDS011;1521;53.584;9.938;2022-08-19T11:46:33;25.30;;;16.40;;
3022;SDS011;1521;53.584;9.938;2022-08-19T11:49:02;25.97;;;15.97;;
3022;SDS011;1521;53.584;9.938;2022-08-19T11:51:29;21.63;;;15.87;;
3022;SDS011;1521;53.584;9.938;2022-08-19T11:53:56;23.50;;;15.10;;
3022;SDS011;1521;53.584;9.938;2022-08-19T11:56:23;17.33;;;13.80;;
3022;SDS011;1521;53.584;9.938;2022-08-19T11:58:51;19.40;;;14.47;;
3022;SDS011;1521;53.584;9.938;2022-08-19T12:01:18;19.27;;;15.73;;
3022;SDS011;1521;53.584;9.938;2022-08-19T12:03:46;23.13;;;16.10;;
3022;SDS011;1521;53.584;9.938;2022-08-19T12:06:14;19.13;;;14.50;;
3022;SDS011;1521;53.584;9.938;2022-08-19T12:08:43;25.23;;;16.47;;
3022;SDS011;1521;53.584;9.938;2022-08-19T12:11:09;22.90;;;16.40;;
3022;SDS011;1521;53.584;9.938;2022-08-19T12:13:37;18.90;;;14.27;;
3022;SDS011;1521;53.584;9.938;2022-08-19T12:16:10;21.30;;;18.37;;
3022;SDS011;1521;53.584;9.938;2022-08-19T12:18:38;17.03;;;13.63;;
3022;SDS011;1521;53.584;9.938;2022-08-19T12:21:06;18.50;;;15.00;;
3022;SDS011;1521;53.584;9.938;2022-08-19T12:23:31;17.33;;;14.03;;
3022;SDS011;1521;53.584;9.938;2022-08-19T12:25:57;17.33;;;13.70;;
3022;SDS011;1521;53.584;9.938;2022-08-19T12:28:23;18.07;;;13.07;;
3022;SDS011;1521;53.584;9.938;2022-08-19T12:30:49;19.50;;;14.67;;
3022;SDS011;1521;53.584;9.938;2022-08-19T12:33:16;20.70;;;14.03;;
3022;SDS011;1521;53.584;9.938;2022-08-19T12:35:48;15.57;;;13.23;;
3022;SDS011;1521;53.584;9.938;2022-08-19T12:38:15;13.10;;;11.40;;
3022;SDS011;1521;53.584;9.938;2022-08-19T12:40:41;17.97;;;13.67;;
3022;SDS011;1521;53.584;9.938;2022-08-19T12:43:09;19.50;;;15.20;;
3022;SDS011;1521;53.584;9.938;2022-08-19T12:45:36;17.83;;;13.40;;
3022;SDS011;1521;53.584;9.938;2022-08-19T12:48:02;15.93;;;12.43;;
3022;SDS011;1521;53.584;9.938;2022-08-19T12:50:29;14.43;;;11.90;;
3022;SDS011;1521;53.584;9.938;2022-08-19T12:52:55;13.00;;;11.60;;
3022;SDS011;1521;53.584;9.938;2022-08-19T12:55:23;14.90;;;13.23;;
3022;SDS011;1521;53.584;9.938;2022-08-19T12:57:49;15.30;;;13.43;;
3022;SDS011;1521;53.584;9.938;2022-08-19T13:00:16;14.83;;;11.40;;
3022;SDS011;1521;53.584;9.938;2022-08-19T13:02:46;15.07;;;12.47;;
3022;SDS011;1521;53.584;9.938;2022-08-19T13:05:15;12.53;;;11.23;;
3022;SDS011;1521;53.584;9.938;2022-08-19T13:07:45;14.93;;;12.23;;
3022;SDS011;1521;53.584;9.938;2022-08-19T13:10:11;14.73;;;12.10;;
3022;SDS011;1521;53.584;9.938;2022-08-19T13:12:40;14.10;;;12.23;;
3022;SDS011;1521;53.584;9.938;2022-08-19T13:15:07;19.30;;;13.20;;
3022;SDS011;1521;53.584;9.938;2022-08-19T13:17:33;17.80;;;15.37;;
3022;SDS011;1521;53.584;9.938;2022-08-19T13:20:00;19.13;;;14.50;;
3022;SDS011;1521;53.584;9.938;2022-08-19T13:22:26;19.97;;;15.50;;
3022;SDS011;1521;53.584;9.938;2022-08-19T13:24:52;16.93;;;14.13;;
3022;SDS011;1521;53.584;9.938;2022-08-19T13:27:18;13.80;;;12.30;;
3022;SDS011;1521;53.584;9.938;2022-08-19T13:29:44;16.13;;;12.97;;
3022;SDS011;1521;53.584;9.938;2022-08-19T13:32:28;14.70;;;13.10;;
3022;SDS011;1521;53.584;9.938;2022-08-19T13:35:14;19.10;;;15.60;;
3022;SDS011;1521;53.584;9.938;2022-08-19T13:37:40;19.50;;;14.83;;
3022;SDS011;1521;53.584;9.938;2022-08-19T13:40:19;19.73;;;14.33;;
3022;SDS011;1521;53.584;9.938;2022-08-19T13:42:49;16.70;;;14.27;;
3022;SDS011;1521;53.584;9.938;2022-08-19T13:45:17;18.50;;;15.00;;
3022;SDS011;1521;53.584;9.938;2022-08-19T13:47:49;17.43;;;14.47;;
3022;SDS011;1521;53.584;9.938;2022-08-19T13:50:19;15.17;;;13.57;;
3022;SDS011;1521;53.584;9.938;2022-08-19T13:52:47;16.80;;;14.13;;
3022;SDS011;1521;53.584;9.938;2022-08-19T13:55:13;14.47;;;12.50;;
3022;SDS011;1521;53.584;9.938;2022-08-19T13:57:40;18.80;;;16.00;;
3022;SDS011;1521;53.584;9.938;2022-08-19T14:00:11;17.87;;;14.83;;
3022;SDS011;1521;53.584;9.938;2022-08-19T14:02:39;16.20;;;12.80;;
3022;SDS011;1521;53.584;9.938;2022-08-19T14:05:05;17.63;;;14.13;;
3022;SDS011;1521;53.584;9.938;2022-08-19T14:07:33;17.80;;;15.90;;
3022;SDS011;1521;53.584;9.938;2022-08-19T14:09:59;16.80;;;14.80;;
3022;SDS011;1521;53.584;9.938;2022-08-19T14:12:25;17.10;;;15.30;;
3022;SDS011;1521;53.584;9.938;2022-08-19T14:14:51;20.23;;;14.83;;
3022;SDS011;1521;53.584;9.938;2022-08-19T14:17:17;19.07;;;16.13;;
3022;SDS011;1521;53.584;9.938;2022-08-19T14:19:42;18.13;;;15.50;;
3022;SDS011;1521;53.584;9.938;2022-08-19T14:22:08;19.60;;;15.43;;
3022;SDS011;1521;53.584;9.938;2022-08-19T14:24:36;19.37;;;16.50;;
3022;SDS011;1521;53.584;9.938;2022-08-19T14:27:03;20.73;;;16.63;;
3022;SDS011;1521;53.584;9.938;2022-08-19T14:29:29;17.70;;;15.80;;
3022;SDS011;1521;53.584;9.938;2022-08-19T14:31:55;16.83;;;14.10;;
3022;SDS011;1521;53.584;9.938;2022-08-19T14:34:24;17.60;;;14.33;;
3022;SDS011;1521;53.584;9.938;2022-08-19T14:36:51;15.53;;;13.40;;
3022;SDS011;1521;53.584;9.938;2022-08-19T14:39:17;14.63;;;13.10;;
3022;SDS011;1521;53.584;9.938;2022-08-19T14:41:42;17.33;;;13.83;;
3022;SDS011;1521;53.584;9.938;2022-08-19T14:44:08;16.87;;;15.07;;
3022;SDS011;1521;53.584;9.938;2022-08-19T14:46:37;18.93;;;14.77;;
3022;SDS011;1521;53.584;9.938;2022-08-19T14:49:04;18.33;;;15.30;;
3022;SDS011;1521;53.584;9.938;2022-08-19T14:51:30;16.70;;;14.97;;
3022;SDS011;1521;53.584;9.938;2022-08-19T14:53:56;16.13;;;14.30;;
3022;SDS011;1521;53.584;9.938;2022-08-19T14:56:23;14.03;;;12.63;;
3022;SDS011;1521;53.584;9.938;2022-08-19T14:58:50;18.27;;;14.53;;
3022;SDS011;1521;53.584;9.938;2022-08-19T15:01:17;15.90;;;14.20;;
3022;SDS011;1521;53.584;9.938;2022-08-19T15:03:47;17.47;;;15.60;;
3022;SDS011;1521;53.584;9.938;2022-08-19T15:06:13;17.67;;;14.27;;
3022;SDS011;1521;53.584;9.938;2022-08-19T15:08:40;17.27;;;14.20;;
3022;SDS011;1521;53.584;9.938;2022-08-19T15:11:08;19.23;;;14.00;;